Map

Track Data

SID SEASON NUMBER BASIN SUBBASIN NAME ISO_TIME NATURE LAT LON WMO_WIND WMO_PRES WMO_AGENCY TRACK_TYPE DIST2LAND LANDFALL IFLAG USA_AGENCY USA_ATCF_ID USA_LAT USA_LON USA_RECORD USA_STATUS USA_WIND USA_PRES USA_SSHS USA_R34_NE USA_R34_SE USA_R34_SW USA_R34_NW USA_R50_NE USA_R50_SE USA_R50_SW USA_R50_NW USA_R64_NE USA_R64_SE USA_R64_SW USA_R64_NW USA_POCI USA_ROCI USA_RMW USA_EYE TOKYO_LAT TOKYO_LON TOKYO_GRADE TOKYO_WIND TOKYO_PRES TOKYO_R50_DIR TOKYO_R50_LONG TOKYO_R50_SHORT TOKYO_R30_DIR TOKYO_R30_LONG TOKYO_R30_SHORT TOKYO_LAND CMA_LAT CMA_LON CMA_CAT CMA_WIND CMA_PRES HKO_LAT HKO_LON HKO_CAT HKO_WIND HKO_PRES NEWDELHI_LAT NEWDELHI_LON NEWDELHI_GRADE NEWDELHI_WIND NEWDELHI_PRES NEWDELHI_CI NEWDELHI_DP NEWDELHI_POCI REUNION_LAT REUNION_LON REUNION_TYPE REUNION_WIND REUNION_PRES REUNION_TNUM REUNION_CI REUNION_RMW REUNION_R34_NE REUNION_R34_SE REUNION_R34_SW REUNION_R34_NW REUNION_R50_NE REUNION_R50_SE REUNION_R50_SW REUNION_R50_NW REUNION_R64_NE REUNION_R64_SE REUNION_R64_SW REUNION_R64_NW BOM_LAT BOM_LON BOM_TYPE BOM_WIND BOM_PRES BOM_TNUM BOM_CI BOM_RMW BOM_R34_NE BOM_R34_SE BOM_R34_SW BOM_R34_NW BOM_R50_NE BOM_R50_SE BOM_R50_SW BOM_R50_NW BOM_R64_NE BOM_R64_SE BOM_R64_SW BOM_R64_NW BOM_ROCI BOM_POCI BOM_EYE BOM_POS_METHOD BOM_PRES_METHOD NADI_LAT NADI_LON NADI_CAT NADI_WIND NADI_PRES WELLINGTON_LAT WELLINGTON_LON WELLINGTON_WIND WELLINGTON_PRES DS824_LAT DS824_LON DS824_STAGE DS824_WIND DS824_PRES TD9636_LAT TD9636_LON TD9636_STAGE TD9636_WIND TD9636_PRES TD9635_LAT TD9635_LON TD9635_WIND TD9635_PRES TD9635_ROCI NEUMANN_LAT NEUMANN_LON NEUMANN_CLASS NEUMANN_WIND NEUMANN_PRES MLC_LAT MLC_LON MLC_CLASS MLC_WIND MLC_PRES USA_GUST BOM_GUST BOM_GUST_PER REUNION_GUST REUNION_GUST_PER USA_SEAHGT USA_SEARAD_NE USA_SEARAD_SE USA_SEARAD_SW USA_SEARAD_NW STORM_SPEED STORM_DIR
1917313N11126 1917 51 WP MM NOT_NAMED 1917-11-09 10:00:00 NR 11.4000 126.300 main 70 70 __________O___ -1 11.4000 126.300 2 2 89
1917313N11126 1917 51 WP MM NOT_NAMED 1917-11-09 12:00:00 NR 11.4014 126.368 main 79 79 __________P___ -1 11.4014 126.368 2 2 91
1917313N11126 1917 51 WP MM NOT_NAMED 1917-11-09 15:00:00 NR 11.3968 126.433 main 79 79 __________P___ -1 11.3968 126.433 2 0 132
1917313N11126 1917 51 WP MM NOT_NAMED 1917-11-09 18:00:00 NR 11.3747 126.399 main 79 55 __________P___ -1 11.3747 126.399 2 2 252
1917313N11126 1917 51 WP MM NOT_NAMED 1917-11-09 21:00:00 NR 11.3247 126.209 main 55 46 __________P___ -1 11.3247 126.209 2 5 256
1917313N11126 1917 51 WP MM NOT_NAMED 1917-11-09 22:00:00 NR 11.3000 126.100 main 46 15 __________O___ -1 11.3000 126.100 2 8 257
1917313N11126 1917 51 WP MM NOT_NAMED 1917-11-10 00:00:00 NR 11.2373 125.809 main 15 0 __________P___ -1 11.2373 125.809 2 11 258
1917313N11126 1917 51 WP MM NOT_NAMED 1917-11-10 03:00:00 NR 11.1177 125.220 main 0 0 __________P___ -1 11.1177 125.220 2 13 259
1917313N11126 1917 51 WP MM NOT_NAMED 1917-11-10 06:00:00 NR 10.9811 124.512 main 0 0 __________P___ -1 10.9811 124.512 2 15 259
1917313N11126 1917 51 WP MM NOT_NAMED 1917-11-10 09:00:00 NR 10.8434 123.753 main 10 0 __________P___ -1 10.8434 123.753 2 15 260
1917313N11126 1917 51 WP MM NOT_NAMED 1917-11-10 10:00:00 NR 10.8000 123.500 main 0 0 __________O___ -1 10.8000 123.500 2 14 260
1917313N11126 1917 51 WP MM NOT_NAMED 1917-11-10 12:00:00 NR 10.7171 123.032 main 0 0 __________P___ -1 10.7171 123.032 2 14 260
1917313N11126 1917 51 WP MM NOT_NAMED 1917-11-10 15:00:00 NR 10.5989 122.316 main 10 0 __________P___ -1 10.5989 122.316 2 14 261
1917313N11126 1917 51 WP MM NOT_NAMED 1917-11-10 18:00:00 NR 10.4963 121.605 main 34 34 __________P___ -1 10.4963 121.605 2 14 263
1917313N11126 1917 51 WP MM NOT_NAMED 1917-11-10 21:00:00 NR 10.4187 120.919 main 109 109 __________P___ -1 10.4187 120.919 2 13 264
1917313N11126 1917 51 WP MM NOT_NAMED 1917-11-10 22:00:00 NR 10.4000 120.700 main 110 66 __________O___ -1 10.4000 120.700 2 12 266
1917313N11126 1917 51 WP MM NOT_NAMED 1917-11-11 00:00:00 NR 10.3766 120.291 main 66 10 __________P___ -1 10.3766 120.291 2 12 268
1917313N11126 1917 51 WP MM NOT_NAMED 1917-11-11 03:00:00 NR 10.3672 119.709 main 10 0 __________P___ -1 10.3672 119.709 2 11 270
1917313N11126 1917 51 WP MM NOT_NAMED 1917-11-11 06:00:00 NR 10.3775 119.148 main 0 0 __________P___ -1 10.3775 119.148 2 11 271
1917313N11126 1917 51 WP MM NOT_NAMED 1917-11-11 09:00:00 NR 10.3948 118.589 main 39 39 __________P___ -1 10.3948 118.589 2 11 272
1917313N11126 1917 51 WP MM NOT_NAMED 1917-11-11 10:00:00 NR 10.4000 118.400 main 55 55 __________O___ -1 10.4000 118.400 2 12 271
1917313N11126 1917 51 WP MM NOT_NAMED 1917-11-11 12:00:00 NR 10.4000 117.993 main 93 93 __________P___ -1 10.4000 117.993 2 12 270
1917313N11126 1917 51 WP MM NOT_NAMED 1917-11-11 15:00:00 NR 10.4000 117.375 main 141 145 __________P___ -1 10.4000 117.375 2 12 270
1917313N11126 1917 51 WP MM NOT_NAMED 1917-11-11 18:00:00 NR 10.4000 116.766 main 173 180 __________P___ -1 10.4000 116.766 2 12 270
1917313N11126 1917 51 WP MM NOT_NAMED 1917-11-11 21:00:00 NR 10.4000 116.184 main 219 219 __________P___ -1 10.4000 116.184 2 11 270
1917313N11126 1917 51 WP MM NOT_NAMED 1917-11-11 22:00:00 NR 10.4000 116.000 main 235 235 __________O___ -1 10.4000 116.000 2 10 270
1917313N11126 1917 51 WP MM NOT_NAMED 1917-11-12 00:00:00 NR 10.3969 115.660 main 259 267 __________P___ -1 10.3969 115.660 2 10 269
1917313N11126 1917 51 WP MM NOT_NAMED 1917-11-12 03:00:00 NR 10.3926 115.182 main 303 303 __________P___ -1 10.3926 115.182 2 9 270
1917313N11126 1917 51 WP MM NOT_NAMED 1917-11-12 06:00:00 NR 10.3914 114.722 main 349 349 __________P___ -1 10.3914 114.722 2 9 270
1917313N11126 1917 51 WP MM NOT_NAMED 1917-11-12 09:00:00 NR 10.3964 114.259 main 386 395 __________P___ -1 10.3964 114.259 2 9 271
1917313N11126 1917 51 WP MM NOT_NAMED 1917-11-12 10:00:00 NR 10.4000 114.100 main 404 404 __________O___ -1 10.4000 114.100 2 10 272
1917313N11126 1917 51 WP MM NOT_NAMED 1917-11-12 12:00:00 NR 10.4110 113.746 main 443 443 __________P___ -1 10.4110 113.746 2 11 272
1917313N11126 1917 51 WP MM NOT_NAMED 1917-11-12 15:00:00 NR 10.4339 113.201 main 457 402 __________P___ -1 10.4339 113.201 2 11 273
1917313N11126 1917 51 WP MM NOT_NAMED 1917-11-12 18:00:00 NR 10.4614 112.664 main 402 353 __________P___ -1 10.4614 112.664 2 10 273
1917313N11126 1917 51 WP MM NOT_NAMED 1917-11-12 21:00:00 NR 10.4905 112.157 main 353 333 __________P___ -1 10.4905 112.157 2 10 273
1917313N11126 1917 51 WP MM NOT_NAMED 1917-11-12 22:00:00 NR 10.5000 112.000 main 333 304 __________O___ -1 10.5000 112.000 4 9 273
1917313N11126 1917 51 WP MM NOT_NAMED 1917-11-13 00:00:00 NR 10.5111 111.718 main 304 265 __________P___ -1 10.5111 111.718 4 8 272
1917313N11126 1917 51 WP MM NOT_NAMED 1917-11-13 03:00:00 NR 10.5278 111.334 main 265 231 __________P___ -1 10.5278 111.334 4 7 273
1917313N11126 1917 51 WP MM NOT_NAMED 1917-11-13 06:00:00 NR 10.5504 110.975 main 231 196 __________P___ -1 10.5504 110.975 4 7 275
1917313N11126 1917 51 WP MM NOT_NAMED 1917-11-13 09:00:00 NR 10.5848 110.621 main 196 186 __________P___ -1 10.5848 110.621 4 7 276
1917313N11126 1917 51 WP MM NOT_NAMED 1917-11-13 10:00:00 NR 10.6000 110.500 main 186 167 __________O___ -1 10.6000 110.500 4 7 278
1917313N11126 1917 51 WP MM NOT_NAMED 1917-11-13 12:00:00 NR 10.6367 110.250 main 167 125 __________P___ -1 10.6367 110.250 4 8 279
1917313N11126 1917 51 WP MM NOT_NAMED 1917-11-13 15:00:00 NR 10.7051 109.859 main 125 86 __________P___ -1 10.7051 109.859 4 8 281
1917313N11126 1917 51 WP MM NOT_NAMED 1917-11-13 18:00:00 NR 10.7848 109.453 main 86 46 __________P___ -1 10.7848 109.453 4 8 282
1917313N11126 1917 51 WP MM NOT_NAMED 1917-11-13 21:00:00 NR 10.8708 109.039 main 46 40 __________P___ -1 10.8708 109.039 4 8 282
1917313N11126 1917 51 WP MM NOT_NAMED 1917-11-13 22:00:00 NR 10.9000 108.900 main 40 __________O___ -1 10.9000 108.900 4 8 282

Digital Typhoon Data and Search

About IBTrACS Database

This database is a web-friendly format of International Best Track Archive for Climate Stewardship (IBTrACS), a global best track data archive curated by NOAA dating back to 1842.

Updated: 2021-10-08